Edina, MN (55435)

8:18 AM CST op 20 december 2014 (GMT -0600)
Edina: Fred Richards Park | Change Station
CLOSE
Current Station
Persoonlijk weerstation
Location: Edina, MN
Geometrische hoogte: 835 ft
Nabije weerstations

Hoogte 835 ft 44.87 °N, 93.34 °W | Updated 5 seconds ago

Geheel bewolkt
Geheel bewolkt
30.2 °F
Voelt als 30 °F
N
2.0
Wind Variabel Wind van ZZO
Gusts 5.0 mijl/u

Vandaag
Hoog -- | Laag -- °F
--% Kans op neerslag
Gisteren
Hoog -- | Laag -- °F
Precip. -- inches
7:47 AM 4:34 PM
Afnemende halvemaan, 3% visible
Druk 30.20 inches
Zicht 3.0 mijlen
Wolken Merendeels bewolkt 1000 ft
Geheel bewolkt 2800 ft
Gevoelstemperatuur 30 °F
Dauwpunt 28 °F
Vochtigheid 92%
Neerslag 0.00 inches
Dikte sneeuw Niet beschikbaar.
UV 0 van de 12
Pollen .10 van de 12
Luchtkwaliteit Niet beschikbaar.
Flu Activity Niet beschikbaar.
METAR KMSP 201353Z 15005KT 3SM BR BKN010 OVC028 M01/M03 A3016 RMK AO2 SFC VIS 5 SLP225 T10111033

More Conditions Fewer Conditions

Druk 30.20 inches
Zicht 3.0 mijlen
Wolken Merendeels bewolkt 1000 ft
Geheel bewolkt 2800 ft
Gevoelstemperatuur 30 °F
Dauwpunt 28 °F
Vochtigheid 92%
Neerslag 0.00 inches
Dikte sneeuw Niet beschikbaar.
UV 0 van de 12
Pollen .10 van de 12
Luchtkwaliteit Niet beschikbaar.
Flu Activity Niet beschikbaar.
METAR KMSP 201353Z 15005KT 3SM BR BKN010 OVC028 M01/M03 A3016 RMK AO2 SFC VIS 5 SLP225 T10111033

More Conditions Fewer Conditions

10-Day Weather Forecast

Almanac

Astronomie

Dec. 20, 2014 Opkomst Ondergang
Werkelijke tijd
Burgerlijke schemering
Nautische schemering
Astronomische schemering
Maan
Golflengte van het zichtbare licht
Daglengte
Tomorrow will be .
, % of the Moon is Illuminated

Extremen vandaag

State Highs State Lows

Community

WunderPhotos

Upload Photos

1,779,174 foto’s ge-upload!

WunderBlogs® & News

Nearby

Luchtkwaliteit

  Luchtkwaliteit LK-index Verontreinigende stof
Not available.

Dikte sneeuw

Station Depth Geometrische hoogte

Aardbevingen

Stad Distance Mag. Time & Date
Minimum magnitude displayed is 2.5.

Watertemperatuur langs de kust

Plaats Temperatuur

Nabije weerstations